Truman, Minnesota
Current Conditions -  °F | °C
As of 10:34 AM on Thursday 30 Oct 2014 (Local Time) from KJYG Reporting Station
Broken Clouds Broken Clouds  
Wind Chill: 46°   Ceiling: 7000
Heat Index: 46°   Visibility: 10mi
Dew Point: 36°   Wind: 0mph
Humidity: 66%   Direction: NA
Pressure: 30.06"   Gusts: NA
Location:  43.83°N, 94.44°W
Report Text: KJYG 301534Z AUTO 00000KT 10SM BKN070 08/02 A3006 RMK AO2
Loading
Personal Weather Stations






























Interactive Weather Map
Tropical Storm Tracking
New forecast layout! Learn more

10-Day Weather Forecast

Advertisements
Track Severe Weather on mobile